Bonnard, Canada
Current Conditions -  °F | °C
As of 10:00 AM on Monday 22 Dec 2014 (Local Time) from CYRJ Reporting Station
Light Snow Light Snow  
Wind Chill:   Ceiling: 900
Heat Index:   Visibility: 8mi
Dew Point:   Wind: 0mph
Humidity: 79%   Direction: NA
Pressure: 30.43"   Gusts: NA
Location:  50.73°N, 71.02°W
Report Text: CYRJ 221500Z 00000KT 8SM -SN OVC009 M13/M16 A3043 RMK SF8 SLP320
Loading
Personal Weather Stations






























Interactive Weather Map New forecast layout! Learn more

10-Day Weather Forecast

Advertisements
Track Severe Weather on mobile